createdAt,value
2023-03-26T00:02:07.773Z,96616.19
2023-03-26T00:04:39.333Z,96621.03
2023-03-26T00:07:10.966Z,96625.47
2023-03-26T00:09:42.704Z,96629.41
2023-03-26T00:12:14.300Z,96629.13
2023-03-26T00:14:45.846Z,96632.31
2023-03-26T00:17:17.381Z,96620.22
2023-03-26T00:19:49.000Z,96628.56
2023-03-26T00:22:20.606Z,96618.75
2023-03-26T00:24:52.236Z,96620.34
2023-03-26T00:27:23.838Z,96620.91
2023-03-26T00:29:55.440Z,96628.28
2023-03-26T00:32:30.280Z,96626.84
2023-03-26T00:35:01.882Z,96631.25
2023-03-26T00:37:33.522Z,96626.09
2023-03-26T00:40:05.835Z,96613.59
2023-03-26T00:42:38.047Z,96615.47
2023-03-26T00:45:10.140Z,96620.06
2023-03-26T00:47:41.924Z,96617.06
2023-03-26T00:50:13.590Z,96612.47
2023-03-26T00:52:46.239Z,96607.31
2023-03-26T00:55:17.820Z,96610.31
2023-03-26T00:57:49.484Z,96610.69
2023-03-26T01:00:32.049Z,96617.41
2023-03-26T01:03:05.954Z,96591.72
2023-03-26T01:05:48.488Z,96592.44
2023-03-26T01:08:26.920Z,96595.59
2023-03-26T01:11:02.615Z,96577.50
2023-03-26T01:13:38.824Z,96570.38
2023-03-26T01:16:48.408Z,96570.38
2023-03-26T01:19:38.411Z,96550.00
2023-03-26T01:22:14.740Z,96533.28
2023-03-26T01:24:47.469Z,96537.22
2023-03-26T01:27:19.042Z,96538.31
2023-03-26T01:29:53.979Z,96531.22
2023-03-26T01:32:38.988Z,96532.38
2023-03-26T01:35:40.219Z,96537.47
2023-03-26T01:38:28.631Z,96529.81
2023-03-26T01:41:25.367Z,96524.34
2023-03-26T01:44:09.240Z,96528.31
2023-03-26T01:46:42.255Z,96520.84
2023-03-26T01:49:13.998Z,96509.50
2023-03-26T01:51:45.999Z,96505.13
2023-03-26T01:54:24.127Z,96489.50
2023-03-26T01:57:17.031Z,96485.63
2023-03-26T01:59:57.935Z,96491.19
2023-03-26T02:02:51.314Z,96479.69
2023-03-26T02:05:47.177Z,96485.63
2023-03-26T02:08:24.574Z,96481.44
2023-03-26T02:11:02.284Z,96464.56
2023-03-26T02:13:34.308Z,96465.81
2023-03-26T02:16:09.909Z,96455.34
2023-03-26T02:18:43.571Z,96458.22
2023-03-26T02:21:18.975Z,96458.09
2023-03-26T02:23:57.052Z,96444.25
2023-03-26T02:26:32.458Z,96447.41
2023-03-26T02:29:15.029Z,96435.38
2023-03-26T02:31:50.136Z,96440.22
2023-03-26T02:34:22.133Z,96436.75
2023-03-26T02:36:55.987Z,96427.00
2023-03-26T02:39:30.634Z,96417.91
2023-03-26T02:42:11.474Z,96412.63
2023-03-26T02:44:50.696Z,96415.13
2023-03-26T02:47:25.265Z,96414.53
2023-03-26T02:49:57.074Z,96418.25
2023-03-26T02:52:36.196Z,96412.00
2023-03-26T02:55:08.331Z,96400.28
2023-03-26T02:57:41.291Z,96390.31
2023-03-26T03:00:21.925Z,96373.81
2023-03-26T03:02:59.406Z,96382.03
2023-03-26T03:05:36.877Z,96369.88
2023-03-26T03:08:33.712Z,96372.84
2023-03-26T03:11:25.604Z,96365.25
2023-03-26T03:13:57.238Z,96351.13
2023-03-26T03:16:33.759Z,96353.47
2023-03-26T03:19:10.835Z,96336.41
2023-03-26T03:21:43.588Z,96336.72
2023-03-26T03:24:15.278Z,96324.66
2023-03-26T03:26:50.305Z,96322.44
2023-03-26T03:29:35.656Z,96323.03
2023-03-26T03:32:27.193Z,96332.66
2023-03-26T03:35:04.113Z,96334.91
2023-03-26T03:37:36.652Z,96322.00
2023-03-26T03:40:10.365Z,96309.53
2023-03-26T03:42:43.386Z,96315.28
2023-03-26T03:45:16.798Z,96294.19
2023-03-26T03:47:51.159Z,96288.38
2023-03-26T03:50:29.159Z,96297.16
2023-03-26T03:53:24.048Z,96301.69
2023-03-26T03:55:57.164Z,96293.28
2023-03-26T03:58:38.785Z,96292.03
2023-03-26T04:04:15.080Z,96283.00
2023-03-26T04:07:02.348Z,96280.63
2023-03-26T04:09:45.144Z,96272.59
2023-03-26T04:12:21.664Z,96260.94
2023-03-26T04:15:06.514Z,96273.34
2023-03-26T04:17:38.740Z,96272.56
2023-03-26T04:20:12.129Z,96266.16
2023-03-26T04:22:44.003Z,96253.16
2023-03-26T04:25:17.427Z,96251.22
2023-03-26T04:27:49.083Z,96264.25
2023-03-26T04:30:28.628Z,96263.09
2023-03-26T04:33:12.468Z,96271.41
2023-03-26T04:35:44.379Z,96257.88
2023-03-26T04:38:18.892Z,96257.69
2023-03-26T04:40:53.792Z,96246.38
2023-03-26T04:43:46.089Z,96247.19
2023-03-26T04:46:38.526Z,96246.81
2023-03-26T04:49:20.149Z,96252.84
2023-03-26T04:51:52.031Z,96256.16
2023-03-26T04:54:45.178Z,96255.44
2023-03-26T04:57:37.360Z,96256.94
2023-03-26T05:00:16.348Z,96252.44
2023-03-26T05:02:50.955Z,96260.81
2023-03-26T05:05:25.004Z,96265.34
2023-03-26T05:07:57.097Z,96272.16
2023-03-26T05:10:28.857Z,96275.50
2023-03-26T05:13:06.872Z,96265.44
2023-03-26T05:15:41.280Z,96250.25
2023-03-26T05:18:33.160Z,96256.06
2023-03-26T05:21:06.366Z,96246.19
2023-03-26T05:23:38.893Z,96227.84
2023-03-26T05:26:19.250Z,96205.44
2023-03-26T05:28:52.687Z,96195.41
2023-03-26T05:31:31.099Z,96204.69
2023-03-26T05:34:04.260Z,96204.66
2023-03-26T05:36:36.756Z,96195.31
2023-03-26T05:39:40.471Z,96186.50
2023-03-26T05:42:42.098Z,96172.75
2023-03-26T05:45:33.966Z,96182.09
2023-03-26T05:48:16.209Z,96184.72
2023-03-26T05:50:49.502Z,96183.31
2023-03-26T05:53:23.795Z,96192.94
2023-03-26T05:56:13.778Z,96202.91
2023-03-26T05:59:04.237Z,96218.09
2023-03-26T06:01:35.838Z,96202.59
2023-03-26T06:04:27.835Z,96207.75
2023-03-26T06:07:29.006Z,96215.66
2023-03-26T06:10:17.946Z,96221.16
2023-03-26T06:12:50.782Z,96227.44
2023-03-26T06:15:24.141Z,96224.16
2023-03-26T06:18:16.761Z,96234.97
2023-03-26T06:20:48.363Z,96192.25
2023-03-26T06:23:33.814Z,96175.06
2023-03-26T06:26:16.081Z,96210.16
2023-03-26T06:29:06.065Z,96214.00
2023-03-26T06:32:06.224Z,96206.22
2023-03-26T06:34:51.634Z,96195.47
2023-03-26T06:37:23.312Z,96192.38
2023-03-26T06:40:00.608Z,96206.09
2023-03-26T06:43:08.301Z,96194.09
2023-03-26T06:46:05.727Z,96186.63
2023-03-26T06:48:43.346Z,96173.16
2023-03-26T06:51:33.183Z,96190.53
2023-03-26T06:54:10.642Z,96184.81
2023-03-26T06:56:51.220Z,96187.38
2023-03-26T06:59:43.175Z,96187.41
2023-03-26T07:02:33.485Z,96197.28
2023-03-26T07:05:31.220Z,96203.69
2023-03-26T07:08:40.688Z,96201.78
2023-03-26T07:11:32.316Z,96203.47
2023-03-26T07:14:32.973Z,96194.91
2023-03-26T07:17:14.414Z,96196.75
2023-03-26T07:20:08.890Z,96188.41
2023-03-26T07:22:41.316Z,96190.56
2023-03-26T07:25:22.393Z,96179.00
2023-03-26T07:29:04.732Z,96184.94
2023-03-26T07:32:08.097Z,96174.78
2023-03-26T07:35:49.089Z,96170.72
2023-03-26T07:38:45.805Z,96169.31
2023-03-26T07:41:50.030Z,96178.50
2023-03-26T07:44:58.474Z,96185.41
2023-03-26T07:47:56.242Z,96199.47
2023-03-26T07:50:32.084Z,96213.81
2023-03-26T07:53:16.445Z,96219.66
2023-03-26T07:56:11.735Z,96222.09
2023-03-26T07:59:35.115Z,96171.59
2023-03-26T08:02:40.178Z,96149.22
2023-03-26T08:05:35.612Z,96168.22
2023-03-26T08:08:52.442Z,96181.38
2023-03-26T08:11:45.179Z,96202.81
2023-03-26T08:14:38.677Z,96208.50
2023-03-26T08:17:41.810Z,96184.63
2023-03-26T08:20:13.421Z,96157.28
2023-03-26T08:22:53.171Z,96164.19
2023-03-26T08:25:39.397Z,96187.13
2023-03-26T08:28:29.357Z,96168.72
2023-03-26T08:31:01.185Z,96174.09
2023-03-26T08:33:32.864Z,96169.50
2023-03-26T08:36:04.777Z,96161.34
2023-03-26T08:38:36.509Z,96158.44
2023-03-26T08:41:11.208Z,96162.16
2023-03-26T08:43:55.602Z,96176.03
2023-03-26T08:47:11.859Z,96170.28
2023-03-26T08:50:03.296Z,96166.28
2023-03-26T08:52:59.109Z,96173.94
2023-03-26T08:55:45.399Z,96172.06
2023-03-26T08:58:40.250Z,96173.91
2023-03-26T09:01:21.191Z,96178.66
2023-03-26T09:03:52.833Z,96191.38
2023-03-26T09:07:07.032Z,96178.94
2023-03-26T09:09:51.393Z,96189.09
2023-03-26T09:12:55.340Z,96178.72
2023-03-26T09:16:01.036Z,96187.47
2023-03-26T09:18:33.165Z,96183.78
2023-03-26T09:21:23.988Z,96187.72
2023-03-26T09:24:19.869Z,96182.09
2023-03-26T09:26:57.746Z,96184.03
2023-03-26T09:30:00.376Z,96185.13
2023-03-26T09:32:53.614Z,96181.09
2023-03-26T09:35:53.953Z,96181.34
2023-03-26T09:38:45.173Z,96171.97
2023-03-26T09:41:56.724Z,96176.28
2023-03-26T09:44:56.291Z,96184.41
2023-03-26T09:47:39.510Z,96163.84
2023-03-26T09:50:14.097Z,96176.22
2023-03-26T09:53:12.699Z,96166.84
2023-03-26T09:56:08.864Z,96170.00
2023-03-26T09:58:46.531Z,96172.16
2023-03-26T10:01:36.895Z,96181.06
2023-03-26T10:04:18.114Z,96174.81
2023-03-26T10:07:08.614Z,96171.94
2023-03-26T10:09:52.434Z,96169.91
2023-03-26T10:12:27.397Z,96164.63
2023-03-26T10:15:23.964Z,96167.69
2023-03-26T10:18:27.314Z,96185.03
2023-03-26T10:21:16.017Z,96180.44
2023-03-26T10:24:18.724Z,96177.59
2023-03-26T10:27:10.777Z,96175.84
2023-03-26T10:30:13.282Z,96176.59
2023-03-26T10:33:08.282Z,96179.56
2023-03-26T10:35:52.764Z,96188.09
2023-03-26T10:38:52.513Z,96184.03
2023-03-26T10:41:33.634Z,96184.22
2023-03-26T10:44:29.777Z,96186.84
2023-03-26T10:47:10.287Z,96182.00
2023-03-26T10:50:23.174Z,96176.31
2023-03-26T10:53:07.979Z,96187.38
2023-03-26T10:55:44.746Z,96181.91
2023-03-26T10:58:28.395Z,96177.53
2023-03-26T11:01:10.461Z,96172.19
2023-03-26T11:04:14.518Z,96168.63
2023-03-26T11:06:49.032Z,96181.25
2023-03-26T11:09:57.415Z,96175.03
2023-03-26T11:13:06.667Z,96182.00
2023-03-26T11:16:03.718Z,96173.59
2023-03-26T11:18:38.351Z,96181.25
2023-03-26T11:21:30.000Z,96172.06
2023-03-26T11:24:07.426Z,96173.25
2023-03-26T11:26:53.418Z,96194.28
2023-03-26T11:29:55.953Z,96161.91
2023-03-26T11:32:45.938Z,96166.03
2023-03-26T11:35:41.142Z,96187.19
2023-03-26T11:38:31.340Z,96162.94
2023-03-26T11:41:11.659Z,96153.31
2023-03-26T11:44:06.045Z,96149.84
2023-03-26T11:46:43.860Z,96159.88
2023-03-26T11:49:20.133Z,96135.13
2023-03-26T11:51:52.011Z,96136.50
2023-03-26T11:54:23.579Z,96113.63
2023-03-26T11:57:08.524Z,96085.34
2023-03-26T11:59:57.954Z,96091.28
2023-03-26T12:02:38.743Z,96071.00
2023-03-26T12:05:13.513Z,96071.34
2023-03-26T12:07:50.006Z,96060.31
2023-03-26T12:10:30.630Z,96077.59
2023-03-26T12:13:16.369Z,96081.06
2023-03-26T12:15:48.449Z,96089.97
2023-03-26T12:18:25.474Z,96076.91
2023-03-26T12:21:15.577Z,96081.00
2023-03-26T12:24:02.234Z,96048.75
2023-03-26T12:26:38.439Z,96029.72
2023-03-26T12:29:18.193Z,96007.00
2023-03-26T12:32:14.066Z,96020.88
2023-03-26T12:34:46.147Z,96033.84
2023-03-26T12:37:50.429Z,96067.50
2023-03-26T12:40:22.416Z,96087.94
2023-03-26T12:44:48.635Z,96097.13
2023-03-26T12:46:03.691Z,96112.03
2023-03-26T12:48:49.035Z,96111.25
2023-03-26T12:51:20.736Z,96126.34
2023-03-26T12:54:27.896Z,96153.88
2023-03-26T12:57:22.070Z,96157.84
2023-03-26T13:00:12.279Z,96186.72
2023-03-26T13:03:28.970Z,96116.50
2023-03-26T13:06:22.781Z,96104.47
2023-03-26T13:09:31.879Z,96085.50
2023-03-26T13:12:30.777Z,96067.72
2023-03-26T13:15:20.292Z,96077.78
2023-03-26T13:18:02.353Z,96073.56
2023-03-26T13:20:53.011Z,96085.50
2023-03-26T13:23:40.667Z,96089.00
2023-03-26T13:26:15.339Z,96081.97
2023-03-26T13:29:04.355Z,96080.53
2023-03-26T13:31:46.099Z,96086.50
2023-03-26T13:34:23.790Z,96086.84
2023-03-26T13:37:11.185Z,96096.16
2023-03-26T13:39:53.368Z,96085.81
2023-03-26T13:42:37.771Z,96094.63
2023-03-26T13:45:45.199Z,96078.09
2023-03-26T13:48:24.392Z,96084.94
2023-03-26T13:51:17.714Z,96081.38
2023-03-26T13:54:05.953Z,96071.56
2023-03-26T13:56:47.496Z,96083.28
2023-03-26T13:59:40.380Z,96086.81
2023-03-26T14:02:28.735Z,96098.53
2023-03-26T14:05:09.567Z,96110.34
2023-03-26T14:08:01.490Z,96116.59
2023-03-26T14:10:40.931Z,96116.28
2023-03-26T14:13:54.348Z,96122.91
2023-03-26T14:16:37.476Z,96125.75
2023-03-26T14:19:21.789Z,96124.50
2023-03-26T14:22:25.359Z,96126.81
2023-03-26T14:25:42.017Z,96132.03
2023-03-26T14:28:49.022Z,96124.28
2023-03-26T14:31:46.028Z,96128.19
2023-03-26T14:34:39.635Z,96131.34
2023-03-26T14:37:27.262Z,96121.19
2023-03-26T14:40:27.202Z,96133.53
2023-03-26T14:43:18.399Z,96130.19
2023-03-26T14:46:06.661Z,96121.44
2023-03-26T14:48:59.198Z,96125.06
2023-03-26T14:52:06.050Z,96126.03
2023-03-26T14:54:44.100Z,96118.63
2023-03-26T14:57:52.062Z,96118.91
2023-03-26T15:00:32.839Z,96120.16
2023-03-26T15:03:52.878Z,96123.06
2023-03-26T15:06:43.087Z,96125.28
2023-03-26T15:09:52.220Z,96116.28
2023-03-26T15:12:48.592Z,96124.00
2023-03-26T15:15:42.238Z,96109.69
2023-03-26T15:18:35.521Z,96113.03
2023-03-26T15:21:38.089Z,96112.84
2023-03-26T15:24:18.611Z,96110.84
2023-03-26T15:27:34.292Z,96105.31
2023-03-26T15:30:59.732Z,96109.19
2023-03-26T15:34:06.447Z,96106.19
2023-03-26T15:36:59.670Z,96104.22
2023-03-26T15:39:59.379Z,96084.53
2023-03-26T15:42:42.187Z,96092.38
2023-03-26T15:45:40.340Z,96092.56
2023-03-26T15:48:12.957Z,96091.47
2023-03-26T15:51:25.718Z,96083.75
2023-03-26T15:54:17.916Z,96078.28
2023-03-26T15:57:02.211Z,96079.00
2023-03-26T15:59:57.507Z,96077.25
2023-03-26T16:02:32.070Z,96081.44
2023-03-26T16:05:23.658Z,96083.03
2023-03-26T16:08:39.777Z,96074.59
2023-03-26T16:11:11.627Z,96081.56
2023-03-26T16:14:04.545Z,96079.09
2023-03-26T16:17:06.532Z,96074.88
2023-03-26T16:19:38.207Z,96075.22
2023-03-26T16:22:34.054Z,96069.91
2023-03-26T16:25:27.879Z,96074.63
2023-03-26T16:28:13.038Z,96068.84
2023-03-26T16:30:44.945Z,96066.63
2023-03-26T16:33:20.290Z,96054.06
2023-03-26T16:36:30.870Z,96062.22
2023-03-26T16:39:08.664Z,96056.84
2023-03-26T16:41:43.588Z,96051.59
2023-03-26T16:44:36.613Z,96045.16
2023-03-26T16:47:14.006Z,96045.22
2023-03-26T16:50:08.802Z,96044.00
2023-03-26T16:52:57.100Z,96028.78
2023-03-26T16:56:14.197Z,96032.22
2023-03-26T16:59:02.114Z,96045.47
2023-03-26T17:01:47.237Z,96033.28
2023-03-26T17:04:23.945Z,96022.13
2023-03-26T17:07:23.993Z,96020.72
2023-03-26T17:10:19.119Z,96018.75
2023-03-26T17:13:02.135Z,96022.06
2023-03-26T17:15:46.137Z,96019.16
2023-03-26T17:18:42.839Z,96016.28
2023-03-26T17:21:47.007Z,96007.06
2023-03-26T17:25:05.612Z,96004.81
2023-03-26T17:28:25.416Z,96012.63
2023-03-26T17:31:16.061Z,96003.69
2023-03-26T17:33:53.609Z,96013.88
2023-03-26T17:36:40.826Z,96013.59
2023-03-26T17:39:38.498Z,96002.22
2023-03-26T17:42:16.265Z,95998.13
2023-03-26T17:44:55.336Z,96007.56
2023-03-26T17:47:27.049Z,96002.47
2023-03-26T17:50:13.210Z,95999.09
2023-03-26T17:53:01.499Z,95994.41
2023-03-26T17:55:40.654Z,95999.13
2023-03-26T17:58:27.250Z,95995.78
2023-03-26T18:01:32.082Z,95996.09
2023-03-26T18:04:11.146Z,95996.94
2023-03-26T18:07:00.962Z,96009.19
2023-03-26T18:09:50.898Z,96023.59
2023-03-26T18:13:00.768Z,96024.75
2023-03-26T18:15:43.182Z,96029.47
2023-03-26T18:18:22.490Z,96064.88
2023-03-26T18:20:54.711Z,96048.09
2023-03-26T18:23:34.301Z,96045.63
2023-03-26T18:26:39.778Z,96048.50
2023-03-26T18:29:29.202Z,96046.06
2023-03-26T18:32:18.575Z,96053.91
2023-03-26T18:35:18.347Z,96057.25
2023-03-26T18:37:56.159Z,96049.56
2023-03-26T18:40:34.259Z,96046.25
2023-03-26T18:43:06.374Z,96046.91
2023-03-26T18:45:46.284Z,96041.66
2023-03-26T18:48:22.141Z,96033.97
2023-03-26T18:51:00.001Z,96047.34
2023-03-26T18:54:07.478Z,96027.19
2023-03-26T18:56:42.122Z,96026.88
2023-03-26T18:59:32.087Z,96020.84
2023-03-26T19:02:11.739Z,96023.06
2023-03-26T19:04:47.060Z,96012.22
2023-03-26T19:07:24.744Z,96016.44
2023-03-26T19:09:57.002Z,96010.06
2023-03-26T19:12:31.633Z,96006.91
2023-03-26T19:15:14.998Z,96004.41
2023-03-26T19:17:52.669Z,96005.78
2023-03-26T19:20:29.579Z,96006.88
2023-03-26T19:23:01.468Z,95999.28
2023-03-26T19:25:55.007Z,95997.78
2023-03-26T19:28:32.160Z,95990.50
2023-03-26T19:31:20.055Z,95990.84
2023-03-26T19:34:01.492Z,95987.69
2023-03-26T19:36:33.398Z,95988.09
2023-03-26T19:39:12.513Z,95989.28
2023-03-26T19:41:51.835Z,95986.81
2023-03-26T19:44:29.864Z,95971.84
2023-03-26T19:47:31.960Z,95983.38
2023-03-26T19:50:20.500Z,95981.81
2023-03-26T19:53:34.884Z,95989.03
2023-03-26T19:56:13.657Z,95991.16
2023-03-26T19:58:45.385Z,95990.91
2023-03-26T20:01:24.312Z,95998.97
2023-03-26T20:04:05.897Z,96003.59
2023-03-26T20:06:43.125Z,95998.09
2023-03-26T20:09:15.356Z,95999.56
2023-03-26T20:11:47.277Z,96001.72
2023-03-26T20:14:19.378Z,96005.94
2023-03-26T20:16:51.625Z,96005.06
2023-03-26T20:19:23.954Z,96005.75
2023-03-26T20:21:55.604Z,95999.47
2023-03-26T20:24:33.307Z,96011.09
2023-03-26T20:27:04.944Z,96006.34
2023-03-26T20:29:36.570Z,96015.50
2023-03-26T20:32:27.303Z,96007.28
2023-03-26T20:34:59.081Z,96010.53
2023-03-26T20:37:30.694Z,96014.94
2023-03-26T20:40:02.435Z,96012.09
2023-03-26T20:42:34.225Z,96014.88
2023-03-26T20:45:19.708Z,96017.28
2023-03-26T20:47:51.917Z,96015.84
2023-03-26T20:50:27.896Z,96016.59
2023-03-26T20:53:00.624Z,96024.88
2023-03-26T20:55:32.629Z,96025.47
2023-03-26T20:58:04.485Z,96032.75
2023-03-26T21:00:36.733Z,96028.50
2023-03-26T21:03:12.868Z,96037.03
2023-03-26T21:05:45.597Z,96037.56
2023-03-26T21:08:19.967Z,96043.25
2023-03-26T21:10:52.889Z,96045.81
2023-03-26T21:13:39.041Z,96051.84
2023-03-26T21:16:12.256Z,96054.44
2023-03-26T21:18:44.237Z,96068.84
2023-03-26T21:21:43.222Z,96064.72
2023-03-26T21:24:23.981Z,96071.06
2023-03-26T21:27:17.519Z,96081.91
2023-03-26T21:29:49.387Z,96080.75
2023-03-26T21:32:22.747Z,96090.34
2023-03-26T21:37:29.258Z,96090.69
2023-03-26T21:40:01.162Z,96089.69
2023-03-26T21:42:33.105Z,96097.50
2023-03-26T21:45:05.227Z,96095.47
2023-03-26T21:47:37.232Z,96104.31
2023-03-26T21:50:12.005Z,96108.06
2023-03-26T21:52:43.998Z,96110.78
2023-03-26T21:55:17.782Z,96125.72
2023-03-26T21:57:58.717Z,96122.31
2023-03-26T22:00:47.305Z,96132.47
2023-03-26T22:03:57.345Z,96131.91
2023-03-26T22:06:37.367Z,96130.63
2023-03-26T22:09:15.015Z,96139.91
2023-03-26T22:11:48.240Z,96139.56
2023-03-26T22:14:19.878Z,96143.94
2023-03-26T22:16:51.598Z,96134.47
2023-03-26T22:19:23.158Z,96143.69
2023-03-26T22:21:54.816Z,96139.00
2023-03-26T22:24:26.459Z,96144.78
2023-03-26T22:26:58.098Z,96146.44
2023-03-26T22:29:29.946Z,96156.84
2023-03-26T22:32:01.916Z,96154.59
2023-03-26T22:34:33.709Z,96163.91
2023-03-26T22:37:05.351Z,96166.22
2023-03-26T22:39:37.176Z,96163.97
2023-03-26T22:42:08.862Z,96168.19
2023-03-26T22:44:40.618Z,96179.09
2023-03-26T22:47:12.268Z,96190.63
2023-03-26T22:49:44.446Z,96196.47
2023-03-26T22:52:16.435Z,96206.03
2023-03-26T22:54:48.121Z,96207.22
2023-03-26T22:57:19.849Z,96213.22
2023-03-26T22:59:52.268Z,96204.59
2023-03-26T23:02:24.307Z,96209.75
2023-03-26T23:04:56.074Z,96215.38
2023-03-26T23:07:27.703Z,96224.66
2023-03-26T23:09:59.480Z,96237.38
2023-03-26T23:12:33.356Z,96231.31
2023-03-26T23:15:06.115Z,96241.63
2023-03-26T23:17:38.166Z,96248.16
2023-03-26T23:20:10.381Z,96248.84
2023-03-26T23:22:42.805Z,96236.31
2023-03-26T23:25:14.566Z,96252.06
2023-03-26T23:27:46.506Z,96260.38
2023-03-26T23:30:18.311Z,96266.34
2023-03-26T23:32:50.485Z,96266.72
2023-03-26T23:35:22.154Z,96279.53
2023-03-26T23:37:53.789Z,96284.75
2023-03-26T23:40:25.441Z,96290.28
2023-03-26T23:42:56.988Z,96284.66
2023-03-26T23:45:28.612Z,96296.72
2023-03-26T23:48:01.697Z,96301.78
2023-03-26T23:50:33.389Z,96302.69
2023-03-26T23:53:05.565Z,96310.03
2023-03-26T23:55:37.216Z,96314.44
2023-03-26T23:58:08.872Z,96309.00
